Time;durP1;ratioP1;P1;durP2;ratioP2;P2;SDS_P1;SDS_P2;PMS_P1;PMS_P2;Temp;Humidity;BMP_temperature;BMP_pressure;BME280_temperature;BME280_humidity;BME280_pressure;Samples;Min_cycle;Max_cycle;Signal;HPM_P1;HPM_P2
2023/03/04 00:01:19;;;;;;;0.20;0.20;;;;;;;;;;4831587;29;20058;-82
2023/03/04 00:03:45;;;;;;;0.10;0.10;;;;;;;;;;4822064;29;20069;-82
2023/03/04 00:06:14;;;;;;;0.20;0.20;;;;;;;;;;4830662;29;20323;-81
2023/03/04 00:08:40;;;;;;;0.20;0.20;;;;;;;;;;4825665;29;20050;-82
2023/03/04 00:11:06;;;;;;;0.20;0.20;;;;;;;;;;4826679;29;20058;-81
2023/03/04 00:13:32;;;;;;;0.20;0.20;;;;;;;;;;4844455;29;20051;-81
2023/03/04 00:16:01;;;;;;;0.15;0.15;;;;;;;;;;4823364;29;20058;-82
2023/03/04 00:18:30;;;;;;;0.20;0.20;;;;;;;;;;4831778;29;20361;-81
2023/03/04 00:20:56;;;;;;;0.20;0.20;;;;;;;;;;4816519;29;20057;-82
2023/03/04 00:23:28;;;;;;;0.20;0.20;;;;;;;;;;4830832;29;20478;-81
2023/03/04 00:25:54;;;;;;;0.10;0.10;;;;;;;;;;4810282;29;20053;-80
2023/03/04 00:28:23;;;;;;;0.15;0.15;;;;;;;;;;4805687;29;20058;-80
2023/03/04 00:30:49;;;;;;;0.20;0.20;;;;;;;;;;4801100;29;20049;-80
2023/03/04 00:33:15;;;;;;;0.20;0.20;;;;;;;;;;4820167;29;20307;-81
2023/03/04 00:35:42;;;;;;;0.17;0.17;;;;;;;;;;4817162;29;20384;-81
2023/03/04 00:38:08;;;;;;;0.20;0.20;;;;;;;;;;4826448;29;20049;-79
2023/03/04 00:40:34;;;;;;;0.20;0.20;;;;;;;;;;4828771;29;20046;-81
2023/03/04 00:43:00;;;;;;;0.20;0.20;;;;;;;;;;4813874;29;20065;-80
2023/03/04 00:45:26;;;;;;;0.10;0.10;;;;;;;;;;4812576;29;20046;-80
2023/03/04 00:47:52;;;;;;;0.20;0.20;;;;;;;;;;4830646;29;20046;-80
2023/03/04 00:50:18;;;;;;;0.20;0.20;;;;;;;;;;4813454;29;20142;-82
2023/03/04 00:52:44;;;;;;;0.20;0.20;;;;;;;;;;4822687;29;20394;-81
2023/03/04 00:55:10;;;;;;;0.20;0.20;;;;;;;;;;4818192;29;20057;-81
2023/03/04 00:57:36;;;;;;;0.20;0.20;;;;;;;;;;4824830;29;20166;-81
2023/03/04 01:00:03;;;;;;;0.17;0.17;;;;;;;;;;4826347;29;20107;-80
2023/03/04 01:02:30;;;;;;;0.20;0.20;;;;;;;;;;4827677;29;20109;-79
2023/03/04 01:04:56;;;;;;;0.20;0.20;;;;;;;;;;4827944;29;20045;-79
2023/03/04 01:07:25;;;;;;;0.20;0.20;;;;;;;;;;4826967;29;20133;-78
2023/03/04 01:09:51;;;;;;;0.20;0.20;;;;;;;;;;4816766;29;20088;-80
2023/03/04 01:12:17;;;;;;;0.20;0.20;;;;;;;;;;4829780;29;20110;-80
2023/03/04 01:14:43;;;;;;;0.20;0.20;;;;;;;;;;4829088;29;20130;-80
2023/03/04 01:17:11;;;;;;;0.10;0.10;;;;;;;;;;4829608;29;20444;-81
2023/03/04 01:19:37;;;;;;;0.17;0.17;;;;;;;;;;4812330;29;20469;-80
2023/03/04 01:22:03;;;;;;;0.10;0.10;;;;;;;;;;4829814;29;20049;-81
2023/03/04 01:24:30;;;;;;;0.20;0.20;;;;;;;;;;4840692;29;20048;-80
2023/03/04 01:26:56;;;;;;;0.17;0.17;;;;;;;;;;4850806;29;20058;-80
2023/03/04 01:29:22;;;;;;;0.20;0.20;;;;;;;;;;4843509;29;20080;-80
2023/03/04 01:31:48;;;;;;;0.10;0.10;;;;;;;;;;4832582;29;20057;-80
2023/03/04 01:34:14;;;;;;;0.20;0.20;;;;;;;;;;4814829;29;20114;-81
2023/03/04 01:36:40;;;;;;;0.20;0.20;;;;;;;;;;4811224;29;20054;-79
2023/03/04 01:39:09;;;;;;;0.20;0.20;;;;;;;;;;4808222;29;20080;-80
2023/03/04 01:41:35;;;;;;;0.20;0.20;;;;;;;;;;4827727;29;20053;-79
2023/03/04 01:44:01;;;;;;;0.20;0.20;;;;;;;;;;4814237;29;20050;-81
2023/03/04 01:46:28;;;;;;;0.20;0.20;;;;;;;;;;4830326;29;20046;-80
2023/03/04 01:48:54;;;;;;;0.20;0.20;;;;;;;;;;4814666;29;20058;-80
2023/03/04 01:51:21;;;;;;;0.20;0.20;;;;;;;;;;4814879;29;20550;-80
2023/03/04 01:53:50;;;;;;;0.20;0.20;;;;;;;;;;4816018;29;20057;-80
2023/03/04 01:56:29;;;;;;;0.20;0.20;;;;;;;;;;4827389;29;20380;-80
2023/03/04 01:59:08;;;;;;;0.10;0.10;;;;;;;;;;4804301;29;20999;-81
2023/03/04 02:01:45;;;;;;;0.20;0.20;;;;;;;;;;4846904;29;20087;-78
2023/03/04 02:04:11;;;;;;;0.20;0.20;;;;;;;;;;4849456;29;20054;-80
2023/03/04 02:06:38;;;;;;;0.20;0.20;;;;;;;;;;4835922;29;20054;-79
2023/03/04 02:09:07;;;;;;;0.20;0.20;;;;;;;;;;4824410;29;20086;-80
2023/03/04 02:11:35;;;;;;;0.20;0.20;;;;;;;;;;4813719;29;20084;-79
2023/03/04 02:14:05;;;;;;;0.20;0.20;;;;;;;;;;4815421;29;20065;-79
2023/03/04 02:16:31;;;;;;;0.20;0.20;;;;;;;;;;4830556;29;20058;-79
2023/03/04 02:18:57;;;;;;;0.10;0.10;;;;;;;;;;4832509;29;20078;-79
2023/03/04 02:21:24;;;;;;;0.20;0.20;;;;;;;;;;4812734;29;20053;-80
2023/03/04 02:24:01;;;;;;;0.20;0.20;;;;;;;;;;4828273;29;20052;-79
2023/03/04 02:26:29;;;;;;;0.20;0.20;;;;;;;;;;4831718;29;20088;-79
2023/03/04 02:28:56;;;;;;;0.20;0.20;;;;;;;;;;4836638;29;20061;-80
2023/03/04 02:31:33;;;;;;;0.20;0.20;;;;;;;;;;4831231;29;20054;-80
2023/03/04 02:34:04;;;;;;;0.20;0.20;;;;;;;;;;4832053;29;20070;-79
2023/03/04 02:36:31;;;;;;;0.20;0.20;;;;;;;;;;4829695;29;20054;-79
2023/03/04 02:39:01;;;;;;;0.20;0.20;;;;;;;;;;4816602;29;20529;-80
2023/03/04 02:41:28;;;;;;;0.20;0.20;;;;;;;;;;4844908;29;20136;-80
2023/03/04 02:43:55;;;;;;;0.20;0.20;;;;;;;;;;4830850;29;20471;-80
2023/03/04 02:46:24;;;;;;;0.20;0.20;;;;;;;;;;4830797;29;20052;-80
2023/03/04 02:48:51;;;;;;;0.20;0.20;;;;;;;;;;4820847;29;20046;-80
2023/03/04 02:51:17;;;;;;;0.15;0.15;;;;;;;;;;4828746;29;20054;-79
2023/03/04 02:53:43;;;;;;;0.20;0.20;;;;;;;;;;4815230;29;20390;-80
2023/03/04 02:56:09;;;;;;;0.20;0.20;;;;;;;;;;4818119;29;20477;-80
2023/03/04 02:58:39;;;;;;;0.20;0.20;;;;;;;;;;4835165;29;20058;-81
2023/03/04 03:01:06;;;;;;;0.20;0.20;;;;;;;;;;4834048;29;20062;-80
2023/03/04 03:03:32;;;;;;;0.20;0.20;;;;;;;;;;4835251;29;20041;-80
2023/03/04 03:06:01;;;;;;;0.20;0.20;;;;;;;;;;4834263;29;20366;-80
2023/03/04 03:08:27;;;;;;;0.20;0.20;;;;;;;;;;4814708;29;20647;-80
2023/03/04 03:10:53;;;;;;;0.20;0.20;;;;;;;;;;4831860;29;20132;-79
2023/03/04 03:13:19;;;;;;;0.20;0.20;;;;;;;;;;4840501;29;20069;-80
2023/03/04 03:15:45;;;;;;;0.20;0.20;;;;;;;;;;4825206;29;20592;-79
2023/03/04 03:18:11;;;;;;;0.20;0.20;;;;;;;;;;4814374;29;20486;-79
2023/03/04 03:20:37;;;;;;;0.20;0.20;;;;;;;;;;4812353;29;20054;-80
2023/03/04 03:23:03;;;;;;;0.20;0.20;;;;;;;;;;4826501;29;20064;-80
2023/03/04 03:25:29;;;;;;;0.20;0.20;;;;;;;;;;4830834;29;20058;-80
2023/03/04 03:27:56;;;;;;;0.20;0.20;;;;;;;;;;4829321;29;20722;-80
2023/03/04 03:30:22;;;;;;;0.20;0.20;;;;;;;;;;4832415;29;20506;-80
2023/03/04 03:32:48;;;;;;;0.17;0.17;;;;;;;;;;4815787;29;20787;-80
2023/03/04 03:35:14;;;;;;;0.20;0.20;;;;;;;;;;4837516;29;20061;-80
2023/03/04 03:37:43;;;;;;;0.20;0.20;;;;;;;;;;4830679;29;20046;-80
2023/03/04 03:40:09;;;;;;;0.20;0.20;;;;;;;;;;4802765;29;20518;-79
2023/03/04 03:42:35;;;;;;;0.20;0.20;;;;;;;;;;4831923;29;20073;-79
2023/03/04 03:45:01;;;;;;;0.20;0.20;;;;;;;;;;4839766;29;20053;-79
2023/03/04 03:47:30;;;;;;;0.20;0.20;;;;;;;;;;4832600;29;20057;-79
2023/03/04 03:49:56;;;;;;;0.20;0.20;;;;;;;;;;4818379;29;20063;-79
2023/03/04 03:52:22;;;;;;;0.20;0.20;;;;;;;;;;4847582;29;20614;-79
2023/03/04 03:54:48;;;;;;;0.20;0.20;;;;;;;;;;4818009;29;20453;-79
2023/03/04 03:57:15;;;;;;;0.20;0.20;;;;;;;;;;4814181;29;20542;-80
2023/03/04 03:59:41;;;;;;;0.20;0.20;;;;;;;;;;4814201;29;20046;-80
2023/03/04 04:02:07;;;;;;;0.20;0.20;;;;;;;;;;4829656;29;20049;-79
2023/03/04 04:04:33;;;;;;;0.20;0.20;;;;;;;;;;4829823;29;20514;-79
2023/03/04 04:06:59;;;;;;;0.20;0.20;;;;;;;;;;4830359;29;20537;-79
2023/03/04 04:09:25;;;;;;;0.20;0.20;;;;;;;;;;4830162;29;20054;-81
2023/03/04 04:11:51;;;;;;;0.20;0.20;;;;;;;;;;4814301;29;20133;-80
2023/03/04 04:14:17;;;;;;;0.15;0.15;;;;;;;;;;4814080;29;20403;-80
2023/03/04 04:16:43;;;;;;;0.20;0.20;;;;;;;;;;4827098;29;20054;-80
2023/03/04 04:19:14;;;;;;;0.20;0.20;;;;;;;;;;4812108;29;20058;-80
2023/03/04 04:21:40;;;;;;;0.20;0.20;;;;;;;;;;4810482;29;20068;-81
2023/03/04 04:24:06;;;;;;;0.20;0.20;;;;;;;;;;4827347;29;20045;-80
2023/03/04 04:26:32;;;;;;;0.10;0.10;;;;;;;;;;4830614;29;20056;-80
2023/03/04 04:28:58;;;;;;;0.20;0.20;;;;;;;;;;4830261;29;20057;-80
2023/03/04 04:31:24;;;;;;;0.15;0.15;;;;;;;;;;4814478;29;20053;-80
2023/03/04 04:33:50;;;;;;;0.20;0.20;;;;;;;;;;4837123;29;20691;-80
2023/03/04 04:36:16;;;;;;;0.20;0.20;;;;;;;;;;4830871;29;20062;-80
2023/03/04 04:38:42;;;;;;;0.20;0.20;;;;;;;;;;4829894;29;20052;-80
2023/03/04 04:41:28;;;;;;;0.17;0.17;;;;;;;;;;4823721;29;20141;-80
2023/03/04 04:43:58;;;;;;;0.20;0.20;;;;;;;;;;4838516;29;20051;-80
2023/03/04 04:46:24;;;;;;;0.20;0.20;;;;;;;;;;4838734;29;20072;-80
2023/03/04 04:48:50;;;;;;;0.20;0.20;;;;;;;;;;4814427;29;20085;-80
2023/03/04 04:51:16;;;;;;;0.20;0.20;;;;;;;;;;4812135;29;20056;-80
2023/03/04 04:53:42;;;;;;;0.20;0.20;;;;;;;;;;4843341;29;20106;-81
2023/03/04 04:56:12;;;;;;;0.20;0.20;;;;;;;;;;4814982;29;20061;-81
2023/03/04 04:58:39;;;;;;;0.15;0.15;;;;;;;;;;4828144;29;20139;-81
2023/03/04 05:01:05;;;;;;;0.10;0.10;;;;;;;;;;4829785;29;20054;-79
2023/03/04 05:03:32;;;;;;;0.20;0.20;;;;;;;;;;4830091;29;20419;-79
2023/03/04 05:05:58;;;;;;;0.20;0.20;;;;;;;;;;4809572;29;20624;-79
2023/03/04 05:08:24;;;;;;;0.20;0.20;;;;;;;;;;4813819;29;20690;-80
2023/03/04 05:10:50;;;;;;;0.13;0.13;;;;;;;;;;4830524;29;20050;-80
2023/03/04 05:13:16;;;;;;;0.20;0.20;;;;;;;;;;4826274;29;20058;-80
2023/03/04 05:15:42;;;;;;;0.20;0.20;;;;;;;;;;4827525;29;20537;-80
2023/03/04 05:18:08;;;;;;;0.20;0.20;;;;;;;;;;4830037;29;20050;-81
2023/03/04 05:20:34;;;;;;;0.20;0.20;;;;;;;;;;4837340;29;20049;-79
2023/03/04 05:23:00;;;;;;;0.10;0.10;;;;;;;;;;4825198;29;20045;-81
2023/03/04 05:25:26;;;;;;;0.20;0.20;;;;;;;;;;4836749;29;20173;-80
2023/03/04 05:27:52;;;;;;;0.20;0.20;;;;;;;;;;4829621;29;20351;-80
2023/03/04 05:30:21;;;;;;;0.20;0.20;;;;;;;;;;4814104;29;20141;-80
2023/03/04 05:32:47;;;;;;;0.10;0.10;;;;;;;;;;4830464;29;20065;-80
2023/03/04 05:35:13;;;;;;;0.13;0.13;;;;;;;;;;4813340;29;20060;-80
2023/03/04 05:37:39;;;;;;;0.20;0.20;;;;;;;;;;4815012;29;20456;-80
2023/03/04 05:40:05;;;;;;;0.20;0.20;;;;;;;;;;4820126;29;20057;-80
2023/03/04 05:42:31;;;;;;;0.10;0.10;;;;;;;;;;4825062;29;20110;-79
2023/03/04 05:44:57;;;;;;;0.20;0.20;;;;;;;;;;4824872;29;20129;-81
2023/03/04 05:47:23;;;;;;;0.20;0.20;;;;;;;;;;4811539;29;20054;-81
2023/03/04 05:49:49;;;;;;;0.20;0.20;;;;;;;;;;4827516;29;20578;-81
2023/03/04 05:52:15;;;;;;;0.15;0.15;;;;;;;;;;4828965;29;20597;-81
2023/03/04 05:54:41;;;;;;;0.20;0.20;;;;;;;;;;4811976;29;20061;-80
2023/03/04 05:57:07;;;;;;;0.20;0.20;;;;;;;;;;4813327;29;20054;-81
2023/03/04 05:59:33;;;;;;;0.20;0.20;;;;;;;;;;4811432;29;20525;-81
2023/03/04 06:01:59;;;;;;;0.20;0.20;;;;;;;;;;4809182;29;20594;-81
2023/03/04 06:04:25;;;;;;;0.20;0.20;;;;;;;;;;4827003;29;20597;-81
2023/03/04 06:06:51;;;;;;;0.30;0.30;;;;;;;;;;4812425;29;20065;-81
2023/03/04 06:09:19;;;;;;;0.20;0.20;;;;;;;;;;4811734;29;20119;-80
2023/03/04 06:11:46;;;;;;;0.20;0.20;;;;;;;;;;4812585;29;20137;-81
2023/03/04 06:14:12;;;;;;;0.20;0.20;;;;;;;;;;4830774;29;20402;-80
2023/03/04 06:16:38;;;;;;;0.20;0.20;;;;;;;;;;4822491;29;20140;-81
2023/03/04 06:19:04;;;;;;;0.20;0.20;;;;;;;;;;4813881;29;20406;-82
2023/03/04 06:21:30;;;;;;;0.20;0.20;;;;;;;;;;4827625;29;20050;-79
2023/03/04 06:23:56;;;;;;;0.13;0.13;;;;;;;;;;4811025;29;20069;-81
2023/03/04 06:26:22;;;;;;;0.10;0.10;;;;;;;;;;4829013;29;20110;-81
2023/03/04 06:28:48;;;;;;;0.17;0.17;;;;;;;;;;4827941;29;20096;-82
2023/03/04 06:31:14;;;;;;;0.20;0.20;;;;;;;;;;4811448;29;20133;-83
2023/03/04 06:33:40;;;;;;;0.20;0.20;;;;;;;;;;4811464;29;20085;-81
2023/03/04 06:36:06;;;;;;;0.20;0.20;;;;;;;;;;4827655;29;20064;-81
2023/03/04 06:38:36;;;;;;;0.20;0.20;;;;;;;;;;4810567;29;20659;-82
2023/03/04 06:41:06;;;;;;;0.13;0.13;;;;;;;;;;4828970;29;20064;-82
2023/03/04 06:43:32;;;;;;;0.20;0.20;;;;;;;;;;4824886;29;20138;-82
2023/03/04 06:45:58;;;;;;;0.20;0.20;;;;;;;;;;4822494;29;20061;-81
2023/03/04 06:48:25;;;;;;;0.20;0.20;;;;;;;;;;4838788;29;20085;-82
2023/03/04 06:50:51;;;;;;;0.20;0.20;;;;;;;;;;4831565;29;20164;-83
2023/03/04 06:53:17;;;;;;;0.20;0.20;;;;;;;;;;4836766;29;20041;-83
2023/03/04 06:55:46;;;;;;;0.20;0.20;;;;;;;;;;4831893;29;20058;-81
2023/03/04 06:58:12;;;;;;;0.10;0.10;;;;;;;;;;4833410;29;20450;-81
2023/03/04 07:00:38;;;;;;;0.15;0.15;;;;;;;;;;4819524;29;20687;-82
2023/03/04 07:03:04;;;;;;;0.13;0.13;;;;;;;;;;4835592;29;20406;-81
2023/03/04 07:05:30;;;;;;;0.20;0.20;;;;;;;;;;4811025;29;20054;-80
2023/03/04 07:07:56;;;;;;;0.10;0.10;;;;;;;;;;4813576;29;20442;-81
2023/03/04 07:10:22;;;;;;;0.13;0.13;;;;;;;;;;4831696;29;20411;-81
2023/03/04 07:12:50;;;;;;;0.10;0.10;;;;;;;;;;4811430;29;20355;-82
2023/03/04 07:15:17;;;;;;;0.20;0.20;;;;;;;;;;4830337;29;20081;-84
2023/03/04 07:17:43;;;;;;;0.20;0.20;;;;;;;;;;4820120;29;20057;-81
2023/03/04 07:20:10;;;;;;;0.10;0.10;;;;;;;;;;4814133;29;20080;-85
2023/03/04 07:22:36;;;;;;;0.20;0.20;;;;;;;;;;4820334;29;20061;-83
2023/03/04 07:25:03;;;;;;;0.20;0.20;;;;;;;;;;4851852;29;20052;-83
2023/03/04 07:27:29;;;;;;;0.20;0.20;;;;;;;;;;4814314;29;20048;-84
2023/03/04 07:29:55;;;;;;;0.20;0.20;;;;;;;;;;4837889;29;20125;-82
2023/03/04 07:32:21;;;;;;;0.20;0.20;;;;;;;;;;4846539;29;20063;-82
2023/03/04 07:34:49;;;;;;;0.20;0.20;;;;;;;;;;4819098;29;20053;-83
2023/03/04 07:37:15;;;;;;;0.20;0.20;;;;;;;;;;4843964;29;20142;-83
2023/03/04 07:39:41;;;;;;;0.20;0.20;;;;;;;;;;4820322;29;20110;-83
2023/03/04 07:42:07;;;;;;;0.20;0.20;;;;;;;;;;4830060;29;20056;-84
2023/03/04 07:44:33;;;;;;;0.20;0.20;;;;;;;;;;4817920;29;20052;-84
2023/03/04 07:47:02;;;;;;;0.20;0.20;;;;;;;;;;4834961;29;20238;-85
2023/03/04 07:49:28;;;;;;;0.20;0.20;;;;;;;;;;4812065;29;20679;-84
2023/03/04 07:51:54;;;;;;;0.20;0.20;;;;;;;;;;4827049;29;20133;-83
2023/03/04 07:54:20;;;;;;;0.20;0.20;;;;;;;;;;4826996;29;20087;-82
2023/03/04 07:56:46;;;;;;;0.10;0.10;;;;;;;;;;4819171;29;20057;-81
2023/03/04 07:59:12;;;;;;;0.20;0.20;;;;;;;;;;4824323;29;20416;-84
2023/03/04 08:01:39;;;;;;;0.15;0.15;;;;;;;;;;4825685;29;20596;-83
2023/03/04 08:04:06;;;;;;;0.17;0.17;;;;;;;;;;4831782;29;20052;-82
2023/03/04 08:06:32;;;;;;;0.13;0.13;;;;;;;;;;4821740;29;20584;-85
2023/03/04 08:09:04;;;;;;;0.20;0.20;;;;;;;;;;4830968;29;20053;-83
2023/03/04 08:11:30;;;;;;;0.20;0.20;;;;;;;;;;4814552;29;20088;-83
2023/03/04 08:13:58;;;;;;;0.20;0.20;;;;;;;;;;4825700;29;20062;-83
2023/03/04 08:16:24;;;;;;;0.17;0.17;;;;;;;;;;4823549;29;20060;-84
2023/03/04 08:18:53;;;;;;;0.10;0.10;;;;;;;;;;4827307;29;20089;-83
2023/03/04 08:21:20;;;;;;;0.10;0.10;;;;;;;;;;4829858;29;20118;-84
2023/03/04 08:23:47;;;;;;;0.20;0.20;;;;;;;;;;4829867;29;20050;-82
2023/03/04 08:26:16;;;;;;;0.20;0.20;;;;;;;;;;4819513;29;20065;-87
2023/03/04 08:28:44;;;;;;;0.10;0.10;;;;;;;;;;4831101;29;20509;-86
2023/03/04 08:31:11;;;;;;;0.20;0.20;;;;;;;;;;4820204;29;20057;-83
2023/03/04 08:33:37;;;;;;;0.20;0.20;;;;;;;;;;4847867;29;20061;-83
2023/03/04 08:36:03;;;;;;;0.20;0.20;;;;;;;;;;4828451;29;20082;-83
2023/03/04 08:38:30;;;;;;;0.10;0.10;;;;;;;;;;4806973;29;20054;-82
2023/03/04 08:40:56;;;;;;;0.15;0.15;;;;;;;;;;4838434;29;20137;-84
2023/03/04 08:43:24;;;;;;;0.10;0.10;;;;;;;;;;4805836;29;20050;-82
2023/03/04 08:45:50;;;;;;;0.20;0.20;;;;;;;;;;4828105;29;20066;-83
2023/03/04 08:48:16;;;;;;;0.20;0.20;;;;;;;;;;4813632;29;20057;-83
2023/03/04 08:50:44;;;;;;;0.20;0.20;;;;;;;;;;4812977;29;20585;-81
2023/03/04 08:53:10;;;;;;;0.20;0.20;;;;;;;;;;4812884;29;20137;-81
2023/03/04 08:55:38;;;;;;;0.20;0.20;;;;;;;;;;4828375;29;20054;-80
2023/03/04 08:58:07;;;;;;;0.20;0.20;;;;;;;;;;4825040;29;20471;-81
2023/03/04 09:00:33;;;;;;;0.20;0.20;;;;;;;;;;4809520;29;20053;-79
2023/03/04 09:03:00;;;;;;;0.10;0.10;;;;;;;;;;4829130;29;20049;-81
2023/03/04 09:05:26;;;;;;;0.17;0.17;;;;;;;;;;4811486;29;20526;-80
2023/03/04 09:07:53;;;;;;;0.20;0.20;;;;;;;;;;4809721;29;20050;-80
2023/03/04 09:10:19;;;;;;;0.20;0.20;;;;;;;;;;4810726;29;20152;-80
2023/03/04 09:12:45;;;;;;;0.10;0.10;;;;;;;;;;4807416;29;20506;-81
2023/03/04 09:15:11;;;;;;;0.20;0.20;;;;;;;;;;4824913;29;20045;-81
2023/03/04 09:17:37;;;;;;;0.10;0.10;;;;;;;;;;4820725;29;20064;-82
2023/03/04 09:20:04;;;;;;;0.20;0.20;;;;;;;;;;4841506;29;20049;-80
2023/03/04 09:22:30;;;;;;;0.17;0.17;;;;;;;;;;4832855;29;20050;-80
2023/03/04 09:24:56;;;;;;;0.20;0.20;;;;;;;;;;4810328;29;20077;-79
2023/03/04 09:27:22;;;;;;;0.13;0.13;;;;;;;;;;4822968;29;20050;-80
2023/03/04 09:29:48;;;;;;;0.20;0.20;;;;;;;;;;4813639;29;20057;-80
2023/03/04 09:32:14;;;;;;;0.10;0.10;;;;;;;;;;4811610;29;20062;-80
2023/03/04 09:34:40;;;;;;;0.20;0.20;;;;;;;;;;4828605;29;20137;-80
2023/03/04 09:37:06;;;;;;;0.20;0.20;;;;;;;;;;4811265;29;20054;-80
2023/03/04 09:39:33;;;;;;;0.20;0.20;;;;;;;;;;4802222;29;20053;-80
2023/03/04 09:42:00;;;;;;;0.20;0.20;;;;;;;;;;4820274;29;20583;-80
2023/03/04 09:44:37;;;;;;;0.20;0.20;;;;;;;;;;4835401;29;20052;-80
2023/03/04 09:47:05;;;;;;;0.20;0.20;;;;;;;;;;4822162;29;20525;-79
2023/03/04 09:49:31;;;;;;;0.10;0.10;;;;;;;;;;4808883;29;20133;-79
2023/03/04 09:52:18;;;;;;;0.10;0.10;;;;;;;;;;4831139;29;20140;-79
2023/03/04 09:54:56;;;;;;;0.20;0.20;;;;;;;;;;4814095;29;20045;-78
2023/03/04 09:57:41;;;;;;;0.20;0.20;;;;;;;;;;4813216;29;20499;-81
2023/03/04 10:00:18;;;;;;;0.20;0.20;;;;;;;;;;4851278;29;20053;-79
2023/03/04 10:02:47;;;;;;;0.17;0.17;;;;;;;;;;4830704;29;20133;-79
2023/03/04 10:05:16;;;;;;;0.20;0.20;;;;;;;;;;4805490;29;20100;-79
2023/03/04 10:07:46;;;;;;;0.20;0.20;;;;;;;;;;4803491;29;20126;-79
2023/03/04 10:10:33;;;;;;;0.15;0.15;;;;;;;;;;4816871;29;20058;-79
2023/03/04 10:13:02;;;;;;;0.20;0.20;;;;;;;;;;4805049;29;20648;-78
2023/03/04 10:15:36;;;;;;;0.20;0.20;;;;;;;;;;4803979;29;20053;-78
2023/03/04 10:18:34;;;;;;;0.10;0.10;;;;;;;;;;4825392;29;20042;-79
2023/03/04 10:21:05;;;;;;;0.20;0.20;;;;;;;;;;4790858;29;20482;-78
2023/03/04 10:23:33;;;;;;;0.20;0.20;;;;;;;;;;4830563;29;20144;-78
2023/03/04 10:26:01;;;;;;;0.20;0.20;;;;;;;;;;4816049;29;20062;-78
2023/03/04 10:28:29;;;;;;;0.20;0.20;;;;;;;;;;4813970;29;20103;-78
2023/03/04 10:31:01;;;;;;;0.17;0.17;;;;;;;;;;4814978;29;20048;-78
2023/03/04 10:33:29;;;;;;;0.20;0.20;;;;;;;;;;4832562;29;20064;-77
2023/03/04 10:36:00;;;;;;;0.13;0.13;;;;;;;;;;4814269;29;20053;-78
2023/03/04 10:38:28;;;;;;;0.20;0.20;;;;;;;;;;4815401;29;20053;-79
2023/03/04 10:40:54;;;;;;;0.20;0.20;;;;;;;;;;4814661;29;20589;-78
2023/03/04 10:43:21;;;;;;;0.17;0.17;;;;;;;;;;4815453;29;20164;-77
2023/03/04 10:45:48;;;;;;;0.20;0.20;;;;;;;;;;4827495;29;20111;-78
2023/03/04 10:48:25;;;;;;;0.10;0.10;;;;;;;;;;4830706;29;20076;-78
2023/03/04 10:50:51;;;;;;;0.20;0.20;;;;;;;;;;4814940;29;20052;-77
2023/03/04 10:53:37;;;;;;;0.20;0.20;;;;;;;;;;4816148;29;20506;-79
2023/03/04 10:56:03;;;;;;;0.20;0.20;;;;;;;;;;4814966;29;20050;-78
2023/03/04 10:58:29;;;;;;;0.20;0.20;;;;;;;;;;4813476;29;20076;-78
2023/03/04 11:01:03;;;;;;;0.13;0.13;;;;;;;;;;4812474;29;20093;-79
2023/03/04 11:03:31;;;;;;;0.20;0.20;;;;;;;;;;4825997;29;20078;-77
2023/03/04 11:06:07;;;;;;;0.10;0.10;;;;;;;;;;4807149;29;20084;-78
2023/03/04 11:08:34;;;;;;;0.10;0.10;;;;;;;;;;4817356;29;20054;-77
2023/03/04 11:11:00;;;;;;;0.20;0.20;;;;;;;;;;4826892;29;20050;-79
2023/03/04 11:13:26;;;;;;;0.20;0.20;;;;;;;;;;4829934;29;20140;-80
2023/03/04 11:15:54;;;;;;;0.10;0.10;;;;;;;;;;4813543;29;20057;-79
2023/03/04 11:18:26;;;;;;;0.20;0.20;;;;;;;;;;4831823;29;20046;-80
2023/03/04 11:20:51;;;;;;;;;;;;;;;;;;4823028;29;20054;-78
2023/03/04 11:23:22;;;;;;;0.20;0.20;;;;;;;;;;4830825;29;19928;-78
2023/03/04 11:25:50;;;;;;;0.17;0.17;;;;;;;;;;4824617;29;20049;-80
2023/03/04 11:28:23;;;;;;;0.15;0.15;;;;;;;;;;4830796;29;20054;-77
2023/03/04 11:30:57;;;;;;;0.20;0.20;;;;;;;;;;4814587;29;20706;-79
2023/03/04 11:33:27;;;;;;;0.20;0.20;;;;;;;;;;4830893;29;20066;-77
2023/03/04 11:36:02;;;;;;;0.20;0.20;;;;;;;;;;4809806;29;20133;-77
2023/03/04 11:38:33;;;;;;;0.10;0.10;;;;;;;;;;4810024;29;20695;-79
2023/03/04 11:41:19;;;;;;;0.10;0.10;;;;;;;;;;4814070;29;20588;-79
2023/03/04 11:43:46;;;;;;;0.20;0.20;;;;;;;;;;4833798;29;20164;-77
2023/03/04 11:46:35;;;;;;;0.20;0.20;;;;;;;;;;4828665;29;20531;-78
2023/03/04 11:49:09;;;;;;;0.10;0.10;;;;;;;;;;4808423;29;20062;-77
2023/03/04 11:51:44;;;;;;;0.20;0.20;;;;;;;;;;4810326;29;20057;-78
2023/03/04 11:54:16;;;;;;;0.20;0.20;;;;;;;;;;4828243;29;20105;-78
2023/03/04 11:56:49;;;;;;;0.17;0.17;;;;;;;;;;4829989;29;20054;-79
2023/03/04 11:59:20;;;;;;;0.20;0.20;;;;;;;;;;4813561;29;20087;-78
2023/03/04 12:02:01;;;;;;;0.10;0.10;;;;;;;;;;4825227;29;20100;-79
2023/03/04 12:04:27;;;;;;;0.10;0.10;;;;;;;;;;4827227;29;20590;-80
2023/03/04 12:06:59;;;;;;;0.20;0.20;;;;;;;;;;4829289;29;20114;-77
2023/03/04 12:09:28;;;;;;;0.20;0.20;;;;;;;;;;4828911;29;20133;-79
2023/03/04 12:12:05;;;;;;;0.20;0.20;;;;;;;;;;4828911;29;20412;-78
2023/03/04 12:14:49;;;;;;;0.20;0.20;;;;;;;;;;4810385;29;20053;-80
2023/03/04 12:17:20;;;;;;;0.17;0.17;;;;;;;;;;4805446;29;20052;-79
2023/03/04 12:20:03;;;;;;;0.20;0.20;;;;;;;;;;4813289;29;20146;-80
2023/03/04 12:22:34;;;;;;;0.10;0.10;;;;;;;;;;4830068;29;20093;-79
2023/03/04 12:25:00;;;;;;;0.20;0.20;;;;;;;;;;4830930;29;20057;-77
2023/03/04 12:27:32;;;;;;;0.10;0.10;;;;;;;;;;4813339;29;20068;-77
2023/03/04 12:29:59;;;;;;;0.20;0.20;;;;;;;;;;4806068;29;20602;-78
2023/03/04 12:32:34;;;;;;;0.10;0.10;;;;;;;;;;4813171;29;20507;-78
2023/03/04 12:35:19;;;;;;;0.15;0.15;;;;;;;;;;4828509;29;20057;-79
2023/03/04 12:37:52;;;;;;;0.20;0.20;;;;;;;;;;4830633;29;20060;-78
2023/03/04 12:40:18;;;;;;;0.13;0.13;;;;;;;;;;4829835;29;20050;-80
2023/03/04 12:42:57;;;;;;;0.20;0.20;;;;;;;;;;4814468;29;20054;-78
2023/03/04 12:45:30;;;;;;;0.20;0.20;;;;;;;;;;4830000;29;20054;-79
2023/03/04 12:48:15;;;;;;;0.20;0.20;;;;;;;;;;4809553;29;20061;-79
2023/03/04 12:51:01;;;;;;;0.20;0.20;;;;;;;;;;4810813;29;20050;-76
2023/03/04 12:53:37;;;;;;;0.10;0.10;;;;;;;;;;4828930;29;20057;-79
2023/03/04 12:56:04;;;;;;;0.20;0.20;;;;;;;;;;4830265;29;20089;-78
2023/03/04 12:58:31;;;;;;;0.20;0.20;;;;;;;;;;4827086;29;20062;-77
2023/03/04 13:01:24;;;;;;;0.20;0.20;;;;;;;;;;4837440;29;20431;-78
2023/03/04 13:04:02;;;;;;;0.10;0.10;;;;;;;;;;4828423;29;20057;-77
2023/03/04 13:06:54;;;;;;;0.20;0.20;;;;;;;;;;4846754;29;20541;-78
2023/03/04 13:09:28;;;;;;;0.20;0.20;;;;;;;;;;4829212;29;20098;-78
2023/03/04 13:12:14;;;;;;;0.10;0.10;;;;;;;;;;4812291;29;20498;-77
2023/03/04 13:14:40;;;;;;;0.20;0.20;;;;;;;;;;4829202;29;20145;-79
2023/03/04 13:17:25;;;;;;;0.20;0.20;;;;;;;;;;4829297;29;20094;-78
2023/03/04 13:19:51;;;;;;;0.20;0.20;;;;;;;;;;4812406;29;20066;-79
2023/03/04 13:22:26;;;;;;;0.15;0.15;;;;;;;;;;4829295;29;20089;-77
2023/03/04 13:24:53;;;;;;;0.10;0.10;;;;;;;;;;4814718;29;20392;-78
2023/03/04 13:27:37;;;;;;;0.10;0.10;;;;;;;;;;4832056;29;20641;-79
2023/03/04 13:30:04;;;;;;;0.20;0.20;;;;;;;;;;4812386;29;20053;-80
2023/03/04 13:32:37;;;;;;;0.20;0.20;;;;;;;;;;4811813;29;20206;-77
2023/03/04 13:35:23;;;;;;;0.10;0.10;;;;;;;;;;4811461;29;20084;-78
2023/03/04 13:37:59;;;;;;;0.20;0.20;;;;;;;;;;4811061;29;20137;-79
2023/03/04 13:40:35;;;;;;;0.15;0.15;;;;;;;;;;4811800;29;20125;-78
2023/03/04 13:43:23;;;;;;;0.20;0.20;;;;;;;;;;4812945;29;20375;-79
2023/03/04 13:45:49;;;;;;;0.20;0.20;;;;;;;;;;4828628;29;20053;-79
2023/03/04 13:48:26;;;;;;;0.20;0.20;;;;;;;;;;4822299;29;20054;-78
2023/03/04 13:50:52;;;;;;;0.13;0.13;;;;;;;;;;4812101;29;20062;-78
2023/03/04 13:53:29;;;;;;;0.17;0.17;;;;;;;;;;4814281;29;20050;-78
2023/03/04 13:56:06;;;;;;;0.10;0.10;;;;;;;;;;4813358;29;20054;-78
2023/03/04 13:58:33;;;;;;;0.20;0.20;;;;;;;;;;4813718;29;20145;-78
2023/03/04 14:00:59;;;;;;;0.28;0.28;;;;;;;;;;4813745;29;20491;-78
2023/03/04 14:03:26;;;;;;;0.20;0.20;;;;;;;;;;4813864;29;20062;-79
2023/03/04 14:06:15;;;;;;;0.20;0.20;;;;;;;;;;4811870;29;20526;-78
2023/03/04 14:08:41;;;;;;;0.20;0.20;;;;;;;;;;4797437;29;20046;-77
2023/03/04 14:11:15;;;;;;;0.10;0.10;;;;;;;;;;4814630;29;20639;-78
2023/03/04 14:13:41;;;;;;;0.20;0.20;;;;;;;;;;4815777;29;20502;-79
2023/03/04 14:16:08;;;;;;;0.20;0.20;;;;;;;;;;4837597;29;20061;-80
2023/03/04 14:18:35;;;;;;;0.20;0.20;;;;;;;;;;4848048;29;20550;-78
2023/03/04 14:21:01;;;;;;;0.20;0.20;;;;;;;;;;4839938;29;20053;-79
2023/03/04 14:23:29;;;;;;;0.20;0.20;;;;;;;;;;4817135;29;20575;-79
2023/03/04 14:26:04;;;;;;;0.20;0.20;;;;;;;;;;4835688;29;20058;-74
2023/03/04 14:28:30;;;;;;;0.20;0.20;;;;;;;;;;4833418;29;20058;-78
2023/03/04 14:30:56;;;;;;;0.15;0.15;;;;;;;;;;4831726;29;20577;-78
2023/03/04 14:33:24;;;;;;;0.20;0.20;;;;;;;;;;4829226;29;20058;-78
2023/03/04 14:35:51;;;;;;;0.20;0.20;;;;;;;;;;4830549;29;20414;-78
2023/03/04 14:38:40;;;;;;;0.10;0.10;;;;;;;;;;4816314;29;20150;-78
2023/03/04 14:41:08;;;;;;;0.10;0.10;;;;;;;;;;4832499;29;20456;-78
2023/03/04 14:43:39;;;;;;;0.17;0.17;;;;;;;;;;4831043;29;20463;-78
2023/03/04 14:46:07;;;;;;;0.10;0.10;;;;;;;;;;4840814;29;20128;-77
2023/03/04 14:48:34;;;;;;;0.17;0.17;;;;;;;;;;4824420;29;20062;-77
2023/03/04 14:51:06;;;;;;;0.20;0.20;;;;;;;;;;4822610;29;20085;-78
2023/03/04 14:53:33;;;;;;;0.20;0.20;;;;;;;;;;4846086;29;20303;-77